Kathy Ann — WDE6768 — position and weather

sailwx.info

Track history (hours):
 
Tides and Currents Weather Stations Pressure Air Temp Water Temp Dewpoint Dewpoint Depression Visibility Wind Speed Wind Dir Waves Ship Positions

Kathy Ann

Owner: Kathy Ann Corporation, Barnegat Light, NJ. More information available from US FCC via Universal Licensing System and Coast Guard Vessel Documentation Center.

Last reported at 2017-Oct-19 05:10 UTC. Time now 2017-Oct-19 05:48 UTC.
Position N 39°45' W 074°07'.

Length 34 m.

Type: Fishing. MMSI: 367384580.

Date/timePositionNaut miles runAvg speedWind from/ knotsBaromVisibWave heightAir tempDewpointWater temp
2017-Oct-19 05:10N 39°45' W 074°07'0 0.0
2017-Oct-19 04:52N 39°45' W 074°07'0 0.0
2017-Oct-19 04:04N 39°45' W 074°07'0 0.0
2017-Oct-19 03:52N 39°45' W 074°07'0 0.0
2017-Oct-19 03:28N 39°45' W 074°07'0 0.0
2017-Oct-19 02:10N 39°45' W 074°07'0 0.0
2017-Oct-19 00:46N 39°45' W 074°07'0 0.0
2017-Oct-19 00:16N 39°45' W 074°07'0 0.0
2017-Oct-18 23:52N 39°45' W 074°07'0 0.0
2017-Oct-18 21:28N 39°45' W 074°07'0 0.0
2017-Oct-18 20:52N 39°45' W 074°07'0 0.0
2017-Oct-18 20:16N 39°45' W 074°07'0 0.0
2017-Oct-18 19:58N 39°45' W 074°07'0 0.0
2017-Oct-18 15:52N 39°45' W 074°07'0 0.0
2017-Oct-18 15:28N 39°45' W 074°07'0 0.0
2017-Oct-18 14:46N 39°45' W 074°07'0 0.0
2017-Oct-18 13:28N 39°45' W 074°07'0 0.1
2017-Oct-18 12:59N 39°45' W 074°07'0 0.0
2017-Oct-18 12:26N 39°45' W 074°07'0 0.0
2017-Oct-18 11:59N 39°45' W 074°07'0 0.0
2017-Oct-18 11:29N 39°45' W 074°07'0 0.0
2017-Oct-18 10:56N 39°45' W 074°07'0 0.0
2017-Oct-18 10:29N 39°45' W 074°07'0 0.0
2017-Oct-18 09:59N 39°45' W 074°07'0 0.0
2017-Oct-18 09:26N 39°45' W 074°07'0 0.0
2017-Oct-18 08:56N 39°45' W 074°07'0 0.0
2017-Oct-18 08:14N 39°45' W 074°07'0 0.0
2017-Oct-18 07:50N 39°45' W 074°07'0 0.0
2017-Oct-18 07:23N 39°45' W 074°07'0 0.0
2017-Oct-18 06:53N 39°45' W 074°07'0 0.0
2017-Oct-18 06:17N 39°45' W 074°07'0 0.0
2017-Oct-18 05:53N 39°45' W 074°07'0 0.0
2017-Oct-18 05:23N 39°45' W 074°07'0 0.0
2017-Oct-18 04:05N 39°45' W 074°07'0 0.0
2017-Oct-18 03:53N 39°45' W 074°07'0 0.0
2017-Oct-18 00:59N 39°45' W 074°07'0 0.0
2017-Oct-17 21:35N 39°45' W 074°07'0 0.0
2017-Oct-17 18:41N 39°45' W 074°07'0 0.0
2017-Oct-17 18:29N 39°45' W 074°07'0 0.0
2017-Oct-17 16:41N 39°45' W 074°07'0 0.0
2017-Oct-17 14:11N 39°45' W 074°07'0 0.0
2017-Oct-17 13:23N 39°45' W 074°07'0 0.0
2017-Oct-17 12:05N 39°45' W 074°07'0 0.0
2017-Oct-17 11:59N 39°45' W 074°07'0 0.0
2017-Oct-17 10:23N 39°45' W 074°07'0 0.0
2017-Oct-17 09:59N 39°45' W 074°07'0 0.0
2017-Oct-17 09:29N 39°45' W 074°07'0 0.0
2017-Oct-17 08:35N 39°45' W 074°07'0 0.0
2017-Oct-17 08:23N 39°45' W 074°07'0 0.0
2017-Oct-17 07:53N 39°45' W 074°07'0 0.0
2017-Oct-17 07:29N 39°45' W 074°07'0 0.0
2017-Oct-17 06:17N 39°45' W 074°07'1 3.1
2017-Oct-17 05:55N 39°46' W 074°06'3 5.4
2017-Oct-17 05:25N 39°46' W 074°02'0 1.1
2017-Oct-17 05:00N 39°46' W 074°03'2 3.9
2017-Oct-17 04:29N 39°47' W 074°00'1 0.1
2017-Oct-16 11:30N 39°47' W 074°02'4 7.4
2017-Oct-16 10:58N 39°46' W 074°07'1 1.2
2017-Oct-16 10:20N 39°45' W 074°07'0 0.0
2017-Oct-16 09:56N 39°45' W 074°07'0 0.0
2017-Oct-16 09:20N 39°45' W 074°07'0 0.0
2017-Oct-16 08:44N 39°45' W 074°07'0 0.0
2017-Oct-16 08:26N 39°45' W 074°07'0 0.0
2017-Oct-16 07:56N 39°45' W 074°07'0 0.0
2017-Oct-16 07:26N 39°45' W 074°07'0 0.0
2017-Oct-16 06:44N 39°45' W 074°07'0 0.0
2017-Oct-16 06:26N 39°45' W 074°07'0 0.0
2017-Oct-16 05:50N 39°45' W 074°07'0 0.0
2017-Oct-16 05:26N 39°45' W 074°07'0 0.0
2017-Oct-16 04:56N 39°45' W 074°07'0 0.0
2017-Oct-16 04:20N 39°45' W 074°07'0 0.0
2017-Oct-16 03:48N 39°45' W 074°07'1 3.5
2017-Oct-16 03:28N 39°46' W 074°06'4 7.8
2017-Oct-16 02:58N 39°47' W 074°01'1 0.1
2017-Oct-15 10:45N 39°46' W 073°60'2 8.6
2017-Oct-15 10:29N 39°46' W 074°03'3 6.0
2017-Oct-15 09:57N 39°45' W 074°07'0 0.1
2017-Oct-15 08:30N 39°45' W 074°07'0 0.0
2017-Oct-15 07:36N 39°45' W 074°07'0 0.1
2017-Oct-15 07:30N 39°45' W 074°07'0 0.0
2017-Oct-15 05:36N 39°45' W 074°07'0 0.0
2017-Oct-15 05:30N 39°45' W 074°07'0 0.0
2017-Oct-15 04:48N 39°45' W 074°07'0 0.0
2017-Oct-15 04:30N 39°45' W 074°07'0 0.0
2017-Oct-15 03:45N 39°45' W 074°07'1 4.4
2017-Oct-15 03:30N 39°46' W 074°06'4 8.1
2017-Oct-15 02:58N 39°47' W 074°00'1 0.1
2017-Oct-14 10:50N 39°46' W 074°01'3 7.8
2017-Oct-14 10:30N 39°46' W 074°04'2 1.8
2017-Oct-14 09:24N 39°45' W 074°07'0 0.0
2017-Oct-14 09:00N 39°45' W 074°07'0 0.0
2017-Oct-14 08:24N 39°45' W 074°07'0 0.0
2017-Oct-14 08:00N 39°45' W 074°07'0 0.0
2017-Oct-14 07:12N 39°45' W 074°07'0 0.0
2017-Oct-14 06:48N 39°45' W 074°07'0 0.0
2017-Oct-14 06:30N 39°45' W 074°07'0 0.0
2017-Oct-14 05:54N 39°45' W 074°07'0 0.0
2017-Oct-14 04:30N 39°45' W 074°07'0 0.0
2017-Oct-14 04:00N 39°45' W 074°07'0 0.0
2017-Oct-14 03:30N 39°45' W 074°07'0 0.0
2017-Oct-13 20:36N 39°45' W 074°07'0 0.0
2017-Oct-13 20:06N 39°45' W 074°07'0 0.0
2017-Oct-13 19:51N 39°45' W 074°07'0 0.0
2017-Oct-13 19:27N 39°45' W 074°07'0 0.0
2017-Oct-13 18:51N 39°45' W 074°07'0 0.0
2017-Oct-13 15:51N 39°45' W 074°07'0 0.0
2017-Oct-13 14:00N 39°45' W 074°07'0 0.0
2017-Oct-13 05:27N 39°45' W 074°07'0 0.0
2017-Oct-13 04:42N 39°45' W 074°07'0 0.0
2017-Oct-13 02:12N 39°45' W 074°07'0 0.0
2017-Oct-13 01:54N 39°45' W 074°07'0 0.0
2017-Oct-12 21:48N 39°45' W 074°07'0 0.0
2017-Oct-12 21:24N 39°45' W 074°07'0 0.0
2017-Oct-12 20:00N 39°45' W 074°07'0 0.0
2017-Oct-12 18:36N 39°45' W 074°07'0 0.0
2017-Oct-12 18:24N 39°45' W 074°07'0 0.0
2017-Oct-12 17:48N 39°45' W 074°07'0 0.0
2017-Oct-12 17:18N 39°45' W 074°07'0 0.0
2017-Oct-12 16:54N 39°45' W 074°07'0 0.0
2017-Oct-12 15:45N 39°45' W 074°07'0 0.0
2017-Oct-12 14:24N 39°45' W 074°07'0 0.0
2017-Oct-12 14:00N 39°45' W 074°07'0 0.0
2017-Oct-12 13:30N 39°45' W 074°07'0 0.0
2017-Oct-12 11:48N 39°45' W 074°07'0 0.0
2017-Oct-12 11:30N 39°45' W 074°07'0 0.0
2017-Oct-12 11:00N 39°45' W 074°07'0 0.0
2017-Oct-12 10:12N 39°45' W 074°07'0 0.0
2017-Oct-12 09:42N 39°45' W 074°07'0 0.0
2017-Oct-12 09:30N 39°45' W 074°07'0 0.0
2017-Oct-12 08:54N 39°45' W 074°07'0 0.0
2017-Oct-12 08:24N 39°45' W 074°07'0 0.0
2017-Oct-12 07:45N 39°45' W 074°07'0 0.0
2017-Oct-12 07:27N 39°45' W 074°07'0 0.0
2017-Oct-12 06:51N 39°45' W 074°07'0 0.0
2017-Oct-12 06:21N 39°45' W 074°07'0 0.0
2017-Oct-12 05:33N 39°45' W 074°07'0 0.0
2017-Oct-12 01:51N 39°45' W 074°07'0 0.0
2017-Oct-12 00:51N 39°45' W 074°07'0 0.0
2017-Oct-12 00:15N 39°45' W 074°07'0 0.0
2017-Oct-11 22:51N 39°45' W 074°07'0 0.0
2017-Oct-11 22:03N 39°45' W 074°07'0 0.0
2017-Oct-11 21:57N 39°45' W 074°07'0 0.2
2017-Oct-11 20:13N 39°45' W 074°07'2 6.5
2017-Oct-11 19:53N 39°46' W 074°04'4 8.7
2017-Oct-11 19:29N 39°46' W 073°60'1 0.0
2017-Oct-10 09:46N 39°46' W 074°00'2 8.4
2017-Oct-10 09:30N 39°46' W 074°03'3 2.6
2017-Oct-10 08:25N 39°45' W 074°07'0 0.0
2017-Oct-10 07:55N 39°45' W 074°07'0 0.0
2017-Oct-10 05:13N 39°45' W 074°07'0 0.0
2017-Oct-10 04:49N 39°45' W 074°07'0 0.0
2017-Oct-10 04:07N 39°45' W 074°07'0 0.0
2017-Oct-10 03:55N 39°45' W 074°07'0 0.0
2017-Oct-10 03:25N 39°45' W 074°07'0 0.0
2017-Oct-10 02:49N 39°45' W 074°07'0 0.0
2017-Oct-10 02:13N 39°45' W 074°07'0 0.0
2017-Oct-10 01:13N 39°45' W 074°07'0 0.0
2017-Oct-10 00:49N 39°45' W 074°07'0 0.0
2017-Oct-10 00:19N 39°45' W 074°07'0 0.0
2017-Oct-09 23:55N 39°45' W 074°07'0 0.0
2017-Oct-09 23:19N 39°45' W 074°07'0 0.0
2017-Oct-09 22:49N 39°45' W 074°07'0 0.0
2017-Oct-09 22:25N 39°45' W 074°07'0 0.0
2017-Oct-09 20:49N 39°45' W 074°07'0 0.0
2017-Oct-09 20:25N 39°45' W 074°07'0 0.0
2017-Oct-09 19:04N 39°45' W 074°07'0 0.0
2017-Oct-09 18:46N 39°45' W 074°07'0 0.0
2017-Oct-09 18:28N 39°45' W 074°07'0 0.0
2017-Oct-09 17:22N 39°45' W 074°07'0 0.0
2017-Oct-09 16:34N 39°45' W 074°07'0 0.0
2017-Oct-09 16:28N 39°45' W 074°07'0 0.0
2017-Oct-09 14:10N 39°45' W 074°07'0 0.0
2017-Oct-09 13:52N 39°45' W 074°07'0 0.0
2017-Oct-09 13:28N 39°45' W 074°07'0 0.0
2017-Oct-09 11:58N 39°45' W 074°07'0 0.0
2017-Oct-09 11:28N 39°45' W 074°07'0 0.0
2017-Oct-09 10:52N 39°45' W 074°07'0 0.0
2017-Oct-09 10:22N 39°45' W 074°07'0 0.0
2017-Oct-09 09:58N 39°45' W 074°07'0 0.0
2017-Oct-09 08:58N 39°45' W 074°07'0 0.0
2017-Oct-09 07:40N 39°45' W 074°07'0 0.0
2017-Oct-09 07:28N 39°45' W 074°07'0 0.0
2017-Oct-09 06:52N 39°45' W 074°07'0 0.0
2017-Oct-09 06:22N 39°45' W 074°07'0 0.0
2017-Oct-09 05:58N 39°45' W 074°07'0 0.0
2017-Oct-09 05:22N 39°45' W 074°07'  
Track history (hours):
 
Tides and Currents Weather Stations Pressure Air Temp Water Temp Dewpoint Dewpoint Depression Visibility Wind Speed Wind Dir Waves Ship Positions

Kathy Ann

Owner: Kathy Ann Corporation, Barnegat Light, NJ. More information available from US FCC via Universal Licensing System and Coast Guard Vessel Documentation Center.

Last reported at 2017-Oct-19 05:10 UTC. Time now 2017-Oct-19 05:48 UTC.
Position N 39°45' W 074°07'.

Length 34 m.

Type: Fishing. MMSI: 367384580.

Date/timePositionNaut miles runAvg speedWind from/ knotsBaromVisibWave heightAir tempDewpointWater temp
2017-Oct-19 05:10N 39°45' W 074°07'0 0.0
2017-Oct-19 04:52N 39°45' W 074°07'0 0.0
2017-Oct-19 04:04N 39°45' W 074°07'0 0.0
2017-Oct-19 03:52N 39°45' W 074°07'0 0.0
2017-Oct-19 03:28N 39°45' W 074°07'0 0.0
2017-Oct-19 02:10N 39°45' W 074°07'0 0.0
2017-Oct-19 00:46N 39°45' W 074°07'0 0.0
2017-Oct-19 00:16N 39°45' W 074°07'0 0.0
2017-Oct-18 23:52N 39°45' W 074°07'0 0.0
2017-Oct-18 21:28N 39°45' W 074°07'0 0.0
2017-Oct-18 20:52N 39°45' W 074°07'0 0.0
2017-Oct-18 20:16N 39°45' W 074°07'0 0.0
2017-Oct-18 19:58N 39°45' W 074°07'0 0.0
2017-Oct-18 15:52N 39°45' W 074°07'0 0.0
2017-Oct-18 15:28N 39°45' W 074°07'0 0.0
2017-Oct-18 14:46N 39°45' W 074°07'0 0.0
2017-Oct-18 13:28N 39°45' W 074°07'0 0.1
2017-Oct-18 12:59N 39°45' W 074°07'0 0.0
2017-Oct-18 12:26N 39°45' W 074°07'0 0.0
2017-Oct-18 11:59N 39°45' W 074°07'0 0.0
2017-Oct-18 11:29N 39°45' W 074°07'0 0.0
2017-Oct-18 10:56N 39°45' W 074°07'0 0.0
2017-Oct-18 10:29N 39°45' W 074°07'0 0.0
2017-Oct-18 09:59N 39°45' W 074°07'0 0.0
2017-Oct-18 09:26N 39°45' W 074°07'0 0.0
2017-Oct-18 08:56N 39°45' W 074°07'0 0.0
2017-Oct-18 08:14N 39°45' W 074°07'0 0.0
2017-Oct-18 07:50N 39°45' W 074°07'0 0.0
2017-Oct-18 07:23N 39°45' W 074°07'0 0.0
2017-Oct-18 06:53N 39°45' W 074°07'0 0.0
2017-Oct-18 06:17N 39°45' W 074°07'0 0.0
2017-Oct-18 05:53N 39°45' W 074°07'0 0.0
2017-Oct-18 05:23N 39°45' W 074°07'0 0.0
2017-Oct-18 04:05N 39°45' W 074°07'0 0.0
2017-Oct-18 03:53N 39°45' W 074°07'0 0.0
2017-Oct-18 00:59N 39°45' W 074°07'0 0.0
2017-Oct-17 21:35N 39°45' W 074°07'0 0.0
2017-Oct-17 18:41N 39°45' W 074°07'0 0.0
2017-Oct-17 18:29N 39°45' W 074°07'0 0.0
2017-Oct-17 16:41N 39°45' W 074°07'0 0.0
2017-Oct-17 14:11N 39°45' W 074°07'0 0.0
2017-Oct-17 13:23N 39°45' W 074°07'0 0.0
2017-Oct-17 12:05N 39°45' W 074°07'0 0.0
2017-Oct-17 11:59N 39°45' W 074°07'0 0.0
2017-Oct-17 10:23N 39°45' W 074°07'0 0.0
2017-Oct-17 09:59N 39°45' W 074°07'0 0.0
2017-Oct-17 09:29N 39°45' W 074°07'0 0.0
2017-Oct-17 08:35N 39°45' W 074°07'0 0.0
2017-Oct-17 08:23N 39°45' W 074°07'0 0.0
2017-Oct-17 07:53N 39°45' W 074°07'0 0.0
2017-Oct-17 07:29N 39°45' W 074°07'0 0.0
2017-Oct-17 06:17N 39°45' W 074°07'1 3.1
2017-Oct-17 05:55N 39°46' W 074°06'3 5.4
2017-Oct-17 05:25N 39°46' W 074°02'0 1.1
2017-Oct-17 05:00N 39°46' W 074°03'2 3.9
2017-Oct-17 04:29N 39°47' W 074°00'1 0.1
2017-Oct-16 11:30N 39°47' W 074°02'4 7.4
2017-Oct-16 10:58N 39°46' W 074°07'1 1.2
2017-Oct-16 10:20N 39°45' W 074°07'0 0.0
2017-Oct-16 09:56N 39°45' W 074°07'0 0.0
2017-Oct-16 09:20N 39°45' W 074°07'0 0.0
2017-Oct-16 08:44N 39°45' W 074°07'0 0.0
2017-Oct-16 08:26N 39°45' W 074°07'0 0.0
2017-Oct-16 07:56N 39°45' W 074°07'0 0.0
2017-Oct-16 07:26N 39°45' W 074°07'0 0.0
2017-Oct-16 06:44N 39°45' W 074°07'0 0.0
2017-Oct-16 06:26N 39°45' W 074°07'0 0.0
2017-Oct-16 05:50N 39°45' W 074°07'0 0.0
2017-Oct-16 05:26N 39°45' W 074°07'0 0.0
2017-Oct-16 04:56N 39°45' W 074°07'0 0.0
2017-Oct-16 04:20N 39°45' W 074°07'0 0.0
2017-Oct-16 03:48N 39°45' W 074°07'1 3.5
2017-Oct-16 03:28N 39°46' W 074°06'4 7.8
2017-Oct-16 02:58N 39°47' W 074°01'1 0.1
2017-Oct-15 10:45N 39°46' W 073°60'2 8.6
2017-Oct-15 10:29N 39°46' W 074°03'3 6.0
2017-Oct-15 09:57N 39°45' W 074°07'0 0.1
2017-Oct-15 08:30N 39°45' W 074°07'0 0.0
2017-Oct-15 07:36N 39°45' W 074°07'0 0.1
2017-Oct-15 07:30N 39°45' W 074°07'0 0.0
2017-Oct-15 05:36N 39°45' W 074°07'0 0.0
2017-Oct-15 05:30N 39°45' W 074°07'0 0.0
2017-Oct-15 04:48N 39°45' W 074°07'0 0.0
2017-Oct-15 04:30N 39°45' W 074°07'0 0.0
2017-Oct-15 03:45N 39°45' W 074°07'1 4.4
2017-Oct-15 03:30N 39°46' W 074°06'4 8.1
2017-Oct-15 02:58N 39°47' W 074°00'1 0.1
2017-Oct-14 10:50N 39°46' W 074°01'3 7.8
2017-Oct-14 10:30N 39°46' W 074°04'2 1.8
2017-Oct-14 09:24N 39°45' W 074°07'0 0.0
2017-Oct-14 09:00N 39°45' W 074°07'0 0.0
2017-Oct-14 08:24N 39°45' W 074°07'0 0.0
2017-Oct-14 08:00N 39°45' W 074°07'0 0.0
2017-Oct-14 07:12N 39°45' W 074°07'0 0.0
2017-Oct-14 06:48N 39°45' W 074°07'0 0.0
2017-Oct-14 06:30N 39°45' W 074°07'0 0.0
2017-Oct-14 05:54N 39°45' W 074°07'0 0.0
2017-Oct-14 04:30N 39°45' W 074°07'0 0.0
2017-Oct-14 04:00N 39°45' W 074°07'0 0.0
2017-Oct-14 03:30N 39°45' W 074°07'0 0.0
2017-Oct-13 20:36N 39°45' W 074°07'0 0.0
2017-Oct-13 20:06N 39°45' W 074°07'0 0.0
2017-Oct-13 19:51N 39°45' W 074°07'0 0.0
2017-Oct-13 19:27N 39°45' W 074°07'0 0.0
2017-Oct-13 18:51N 39°45' W 074°07'0 0.0
2017-Oct-13 15:51N 39°45' W 074°07'0 0.0
2017-Oct-13 14:00N 39°45' W 074°07'0 0.0
2017-Oct-13 05:27N 39°45' W 074°07'0 0.0
2017-Oct-13 04:42N 39°45' W 074°07'0 0.0
2017-Oct-13 02:12N 39°45' W 074°07'0 0.0
2017-Oct-13 01:54N 39°45' W 074°07'0 0.0
2017-Oct-12 21:48N 39°45' W 074°07'0 0.0
2017-Oct-12 21:24N 39°45' W 074°07'0 0.0
2017-Oct-12 20:00N 39°45' W 074°07'0 0.0
2017-Oct-12 18:36N 39°45' W 074°07'0 0.0
2017-Oct-12 18:24N 39°45' W 074°07'0 0.0
2017-Oct-12 17:48N 39°45' W 074°07'0 0.0
2017-Oct-12 17:18N 39°45' W 074°07'0 0.0
2017-Oct-12 16:54N 39°45' W 074°07'0 0.0
2017-Oct-12 15:45N 39°45' W 074°07'0 0.0
2017-Oct-12 14:24N 39°45' W 074°07'0 0.0
2017-Oct-12 14:00N 39°45' W 074°07'0 0.0
2017-Oct-12 13:30N 39°45' W 074°07'0 0.0
2017-Oct-12 11:48N 39°45' W 074°07'0 0.0
2017-Oct-12 11:30N 39°45' W 074°07'0 0.0
2017-Oct-12 11:00N 39°45' W 074°07'0 0.0
2017-Oct-12 10:12N 39°45' W 074°07'0 0.0
2017-Oct-12 09:42N 39°45' W 074°07'0 0.0
2017-Oct-12 09:30N 39°45' W 074°07'0 0.0
2017-Oct-12 08:54N 39°45' W 074°07'0 0.0
2017-Oct-12 08:24N 39°45' W 074°07'0 0.0
2017-Oct-12 07:45N 39°45' W 074°07'0 0.0
2017-Oct-12 07:27N 39°45' W 074°07'0 0.0
2017-Oct-12 06:51N 39°45' W 074°07'0 0.0
2017-Oct-12 06:21N 39°45' W 074°07'0 0.0
2017-Oct-12 05:33N 39°45' W 074°07'0 0.0
2017-Oct-12 01:51N 39°45' W 074°07'0 0.0
2017-Oct-12 00:51N 39°45' W 074°07'0 0.0
2017-Oct-12 00:15N 39°45' W 074°07'0 0.0
2017-Oct-11 22:51N 39°45' W 074°07'0 0.0
2017-Oct-11 22:03N 39°45' W 074°07'0 0.0
2017-Oct-11 21:57N 39°45' W 074°07'0 0.2
2017-Oct-11 20:13N 39°45' W 074°07'2 6.5
2017-Oct-11 19:53N 39°46' W 074°04'4 8.7
2017-Oct-11 19:29N 39°46' W 073°60'1 0.0
2017-Oct-10 09:46N 39°46' W 074°00'2 8.4
2017-Oct-10 09:30N 39°46' W 074°03'3 2.6
2017-Oct-10 08:25N 39°45' W 074°07'0 0.0
2017-Oct-10 07:55N 39°45' W 074°07'0 0.0
2017-Oct-10 05:13N 39°45' W 074°07'0 0.0
2017-Oct-10 04:49N 39°45' W 074°07'0 0.0
2017-Oct-10 04:07N 39°45' W 074°07'0 0.0
2017-Oct-10 03:55N 39°45' W 074°07'0 0.0
2017-Oct-10 03:25N 39°45' W 074°07'0 0.0
2017-Oct-10 02:49N 39°45' W 074°07'0 0.0
2017-Oct-10 02:13N 39°45' W 074°07'0 0.0
2017-Oct-10 01:13N 39°45' W 074°07'0 0.0
2017-Oct-10 00:49N 39°45' W 074°07'0 0.0
2017-Oct-10 00:19N 39°45' W 074°07'0 0.0
2017-Oct-09 23:55N 39°45' W 074°07'0 0.0
2017-Oct-09 23:19N 39°45' W 074°07'0 0.0
2017-Oct-09 22:49N 39°45' W 074°07'0 0.0
2017-Oct-09 22:25N 39°45' W 074°07'0 0.0
2017-Oct-09 20:49N 39°45' W 074°07'0 0.0
2017-Oct-09 20:25N 39°45' W 074°07'0 0.0
2017-Oct-09 19:04N 39°45' W 074°07'0 0.0
2017-Oct-09 18:46N 39°45' W 074°07'0 0.0
2017-Oct-09 18:28N 39°45' W 074°07'0 0.0
2017-Oct-09 17:22N 39°45' W 074°07'0 0.0
2017-Oct-09 16:34N 39°45' W 074°07'0 0.0
2017-Oct-09 16:28N 39°45' W 074°07'0 0.0
2017-Oct-09 14:10N 39°45' W 074°07'0 0.0
2017-Oct-09 13:52N 39°45' W 074°07'0 0.0
2017-Oct-09 13:28N 39°45' W 074°07'0 0.0
2017-Oct-09 11:58N 39°45' W 074°07'0 0.0
2017-Oct-09 11:28N 39°45' W 074°07'0 0.0
2017-Oct-09 10:52N 39°45' W 074°07'0 0.0
2017-Oct-09 10:22N 39°45' W 074°07'0 0.0
2017-Oct-09 09:58N 39°45' W 074°07'0 0.0
2017-Oct-09 08:58N 39°45' W 074°07'0 0.0
2017-Oct-09 07:40N 39°45' W 074°07'0 0.0
2017-Oct-09 07:28N 39°45' W 074°07'0 0.0
2017-Oct-09 06:52N 39°45' W 074°07'0 0.0
2017-Oct-09 06:22N 39°45' W 074°07'0 0.0
2017-Oct-09 05:58N 39°45' W 074°07'0 0.0
2017-Oct-09 05:22N 39°45' W 074°07'  

Dump ship's entire track history